sensor_id;sensor_type;location;lat;lon;timestamp;temperature;humidity
16038;DHT22;8123;50.906;6.172;2023-05-07T00:00:33;13.60;99.90
16038;DHT22;8123;50.906;6.172;2023-05-07T00:02:59;13.60;99.90
16038;DHT22;8123;50.906;6.172;2023-05-07T00:05:25;13.60;99.90
16038;DHT22;8123;50.906;6.172;2023-05-07T00:07:53;13.60;99.90
16038;DHT22;8123;50.906;6.172;2023-05-07T00:10:19;13.60;99.90
16038;DHT22;8123;50.906;6.172;2023-05-07T00:12:45;13.60;99.90
16038;DHT22;8123;50.906;6.172;2023-05-07T00:15:10;13.50;99.90
16038;DHT22;8123;50.906;6.172;2023-05-07T00:17:36;13.50;99.90
16038;DHT22;8123;50.906;6.172;2023-05-07T00:20:03;13.50;99.90
16038;DHT22;8123;50.906;6.172;2023-05-07T00:22:29;13.60;99.90
16038;DHT22;8123;50.906;6.172;2023-05-07T00:24:55;13.50;99.90
16038;DHT22;8123;50.906;6.172;2023-05-07T00:27:22;13.50;99.90
16038;DHT22;8123;50.906;6.172;2023-05-07T00:29:47;13.50;99.90
16038;DHT22;8123;50.906;6.172;2023-05-07T00:32:13;13.50;99.90
16038;DHT22;8123;50.906;6.172;2023-05-07T00:34:39;13.50;99.90
16038;DHT22;8123;50.906;6.172;2023-05-07T00:37:07;13.60;99.90
16038;DHT22;8123;50.906;6.172;2023-05-07T00:39:35;13.60;99.90
16038;DHT22;8123;50.906;6.172;2023-05-07T00:42:01;13.60;99.90
16038;DHT22;8123;50.906;6.172;2023-05-07T00:44:28;13.60;99.90
16038;DHT22;8123;50.906;6.172;2023-05-07T00:46:57;13.50;99.90
16038;DHT22;8123;50.906;6.172;2023-05-07T00:49:26;13.50;99.90
16038;DHT22;8123;50.906;6.172;2023-05-07T00:51:56;13.50;99.90
16038;DHT22;8123;50.906;6.172;2023-05-07T00:54:24;13.50;99.90
16038;DHT22;8123;50.906;6.172;2023-05-07T00:56:49;13.50;99.90
16038;DHT22;8123;50.906;6.172;2023-05-07T00:59:15;13.50;99.90
16038;DHT22;8123;50.906;6.172;2023-05-07T01:01:41;13.50;99.90
16038;DHT22;8123;50.906;6.172;2023-05-07T01:04:06;13.50;99.90
16038;DHT22;8123;50.906;6.172;2023-05-07T01:06:34;13.50;99.90
16038;DHT22;8123;50.906;6.172;2023-05-07T01:09:00;13.50;99.90
16038;DHT22;8123;50.906;6.172;2023-05-07T01:11:26;13.50;99.90
16038;DHT22;8123;50.906;6.172;2023-05-07T01:13:52;13.50;99.90
16038;DHT22;8123;50.906;6.172;2023-05-07T01:16:18;13.50;99.90
16038;DHT22;8123;50.906;6.172;2023-05-07T01:18:44;13.50;99.90
16038;DHT22;8123;50.906;6.172;2023-05-07T01:21:15;13.50;99.90
16038;DHT22;8123;50.906;6.172;2023-05-07T01:23:42;13.50;99.90
16038;DHT22;8123;50.906;6.172;2023-05-07T01:26:08;13.50;99.90
16038;DHT22;8123;50.906;6.172;2023-05-07T01:28:33;13.60;99.90
16038;DHT22;8123;50.906;6.172;2023-05-07T01:31:02;13.60;99.90
16038;DHT22;8123;50.906;6.172;2023-05-07T01:33:30;13.60;99.90
16038;DHT22;8123;50.906;6.172;2023-05-07T01:35:57;13.50;99.90
16038;DHT22;8123;50.906;6.172;2023-05-07T01:38:25;13.60;99.90
16038;DHT22;8123;50.906;6.172;2023-05-07T01:40:52;13.60;99.90
16038;DHT22;8123;50.906;6.172;2023-05-07T01:43:19;13.50;99.90
16038;DHT22;8123;50.906;6.172;2023-05-07T01:45:50;13.50;99.90
16038;DHT22;8123;50.906;6.172;2023-05-07T01:48:16;13.50;99.90
16038;DHT22;8123;50.906;6.172;2023-05-07T01:50:43;13.50;99.90
16038;DHT22;8123;50.906;6.172;2023-05-07T01:53:09;13.40;99.90
16038;DHT22;8123;50.906;6.172;2023-05-07T01:55:35;13.40;99.90
16038;DHT22;8123;50.906;6.172;2023-05-07T01:58:02;13.40;99.90
16038;DHT22;8123;50.906;6.172;2023-05-07T02:00:28;13.40;99.90
16038;DHT22;8123;50.906;6.172;2023-05-07T02:02:54;13.30;99.90
16038;DHT22;8123;50.906;6.172;2023-05-07T02:05:21;13.30;99.90
16038;DHT22;8123;50.906;6.172;2023-05-07T02:07:46;13.20;99.90
16038;DHT22;8123;50.906;6.172;2023-05-07T02:10:12;13.20;99.90
16038;DHT22;8123;50.906;6.172;2023-05-07T02:12:37;13.10;99.90
16038;DHT22;8123;50.906;6.172;2023-05-07T02:15:03;13.10;99.90
16038;DHT22;8123;50.906;6.172;2023-05-07T02:17:29;13.00;99.90
16038;DHT22;8123;50.906;6.172;2023-05-07T02:19:57;13.00;99.90
16038;DHT22;8123;50.906;6.172;2023-05-07T02:22:22;13.00;99.90
16038;DHT22;8123;50.906;6.172;2023-05-07T02:24:48;12.90;99.90
16038;DHT22;8123;50.906;6.172;2023-05-07T02:27:14;12.90;99.90
16038;DHT22;8123;50.906;6.172;2023-05-07T02:29:40;12.90;99.90
16038;DHT22;8123;50.906;6.172;2023-05-07T02:32:05;12.90;99.90
16038;DHT22;8123;50.906;6.172;2023-05-07T02:34:32;12.90;99.90
16038;DHT22;8123;50.906;6.172;2023-05-07T02:36:58;12.90;99.90
16038;DHT22;8123;50.906;6.172;2023-05-07T02:39:23;12.90;99.90
16038;DHT22;8123;50.906;6.172;2023-05-07T02:41:49;13.00;99.90
16038;DHT22;8123;50.906;6.172;2023-05-07T02:44:15;13.00;99.90
16038;DHT22;8123;50.906;6.172;2023-05-07T02:46:40;13.00;99.90
16038;DHT22;8123;50.906;6.172;2023-05-07T02:49:06;13.10;99.90
16038;DHT22;8123;50.906;6.172;2023-05-07T02:51:32;13.00;99.90
16038;DHT22;8123;50.906;6.172;2023-05-07T02:53:57;13.00;99.90
16038;DHT22;8123;50.906;6.172;2023-05-07T02:56:26;13.00;99.90
16038;DHT22;8123;50.906;6.172;2023-05-07T02:58:52;13.00;99.90
16038;DHT22;8123;50.906;6.172;2023-05-07T03:01:18;13.00;99.90
16038;DHT22;8123;50.906;6.172;2023-05-07T03:03:44;13.00;99.90
16038;DHT22;8123;50.906;6.172;2023-05-07T03:06:09;13.00;99.90
16038;DHT22;8123;50.906;6.172;2023-05-07T03:08:35;13.00;99.90
16038;DHT22;8123;50.906;6.172;2023-05-07T03:11:02;13.00;99.90
16038;DHT22;8123;50.906;6.172;2023-05-07T03:13:27;13.10;99.90
16038;DHT22;8123;50.906;6.172;2023-05-07T03:15:53;13.10;99.90
16038;DHT22;8123;50.906;6.172;2023-05-07T03:18:19;13.10;99.90
16038;DHT22;8123;50.906;6.172;2023-05-07T03:20:44;13.10;99.90
16038;DHT22;8123;50.906;6.172;2023-05-07T03:23:10;13.10;99.90
16038;DHT22;8123;50.906;6.172;2023-05-07T03:25:35;13.10;99.90
16038;DHT22;8123;50.906;6.172;2023-05-07T03:28:01;13.10;99.90
16038;DHT22;8123;50.906;6.172;2023-05-07T03:30:27;13.00;99.90
16038;DHT22;8123;50.906;6.172;2023-05-07T03:32:52;13.00;99.90
16038;DHT22;8123;50.906;6.172;2023-05-07T03:35:18;13.00;99.90
16038;DHT22;8123;50.906;6.172;2023-05-07T03:37:44;13.00;99.90
16038;DHT22;8123;50.906;6.172;2023-05-07T03:40:10;13.00;99.90
16038;DHT22;8123;50.906;6.172;2023-05-07T03:42:35;13.00;99.90
16038;DHT22;8123;50.906;6.172;2023-05-07T03:45:01;13.00;99.90
16038;DHT22;8123;50.906;6.172;2023-05-07T03:47:27;13.00;99.90
16038;DHT22;8123;50.906;6.172;2023-05-07T03:49:53;12.90;99.90
16038;DHT22;8123;50.906;6.172;2023-05-07T03:52:20;13.00;99.90
16038;DHT22;8123;50.906;6.172;2023-05-07T03:54:49;13.00;99.90
16038;DHT22;8123;50.906;6.172;2023-05-07T03:57:19;13.00;99.90
16038;DHT22;8123;50.906;6.172;2023-05-07T03:59:45;13.00;99.90
16038;DHT22;8123;50.906;6.172;2023-05-07T04:02:11;13.00;99.90
16038;DHT22;8123;50.906;6.172;2023-05-07T04:04:36;13.00;99.90
16038;DHT22;8123;50.906;6.172;2023-05-07T04:07:02;13.00;99.90
16038;DHT22;8123;50.906;6.172;2023-05-07T04:09:28;13.00;99.90
16038;DHT22;8123;50.906;6.172;2023-05-07T04:11:57;13.00;99.90
16038;DHT22;8123;50.906;6.172;2023-05-07T04:14:22;13.00;99.90
16038;DHT22;8123;50.906;6.172;2023-05-07T04:16:48;13.10;99.90
16038;DHT22;8123;50.906;6.172;2023-05-07T04:19:14;13.10;99.90
16038;DHT22;8123;50.906;6.172;2023-05-07T04:21:39;13.10;99.90
16038;DHT22;8123;50.906;6.172;2023-05-07T04:24:05;13.20;99.90
16038;DHT22;8123;50.906;6.172;2023-05-07T04:26:31;13.20;99.90
16038;DHT22;8123;50.906;6.172;2023-05-07T04:28:57;13.20;99.90
16038;DHT22;8123;50.906;6.172;2023-05-07T04:31:24;13.20;99.90
16038;DHT22;8123;50.906;6.172;2023-05-07T04:33:50;13.20;99.90
16038;DHT22;8123;50.906;6.172;2023-05-07T04:36:17;13.20;99.90
16038;DHT22;8123;50.906;6.172;2023-05-07T04:38:42;13.20;99.90
16038;DHT22;8123;50.906;6.172;2023-05-07T04:41:09;13.20;99.90
16038;DHT22;8123;50.906;6.172;2023-05-07T04:43:34;13.20;99.90
16038;DHT22;8123;50.906;6.172;2023-05-07T04:46:00;13.20;99.90
16038;DHT22;8123;50.906;6.172;2023-05-07T04:48:26;13.20;99.90
16038;DHT22;8123;50.906;6.172;2023-05-07T04:50:52;13.30;99.90
16038;DHT22;8123;50.906;6.172;2023-05-07T04:53:19;13.30;99.90
16038;DHT22;8123;50.906;6.172;2023-05-07T04:55:45;13.30;99.90
16038;DHT22;8123;50.906;6.172;2023-05-07T04:58:11;13.30;99.90
16038;DHT22;8123;50.906;6.172;2023-05-07T05:00:37;13.30;99.90
16038;DHT22;8123;50.906;6.172;2023-05-07T05:03:04;13.40;99.90
16038;DHT22;8123;50.906;6.172;2023-05-07T05:05:30;13.40;99.90
16038;DHT22;8123;50.906;6.172;2023-05-07T05:07:56;13.40;99.90
16038;DHT22;8123;50.906;6.172;2023-05-07T05:10:22;13.40;99.90
16038;DHT22;8123;50.906;6.172;2023-05-07T05:12:47;13.50;99.90
16038;DHT22;8123;50.906;6.172;2023-05-07T05:15:13;13.50;99.90
16038;DHT22;8123;50.906;6.172;2023-05-07T05:17:39;13.50;99.90
16038;DHT22;8123;50.906;6.172;2023-05-07T05:20:05;13.50;99.90
16038;DHT22;8123;50.906;6.172;2023-05-07T05:22:31;13.50;99.90
16038;DHT22;8123;50.906;6.172;2023-05-07T05:24:57;13.50;99.90
16038;DHT22;8123;50.906;6.172;2023-05-07T05:27:23;13.60;99.90
16038;DHT22;8123;50.906;6.172;2023-05-07T05:29:48;13.70;99.90
16038;DHT22;8123;50.906;6.172;2023-05-07T05:32:15;13.70;99.90
16038;DHT22;8123;50.906;6.172;2023-05-07T05:34:41;13.90;99.90
16038;DHT22;8123;50.906;6.172;2023-05-07T05:37:06;13.90;99.90
16038;DHT22;8123;50.906;6.172;2023-05-07T05:39:32;13.90;99.90
16038;DHT22;8123;50.906;6.172;2023-05-07T05:41:57;14.00;99.90
16038;DHT22;8123;50.906;6.172;2023-05-07T05:44:23;14.00;99.90
16038;DHT22;8123;50.906;6.172;2023-05-07T05:46:49;14.10;99.90
16038;DHT22;8123;50.906;6.172;2023-05-07T05:49:15;14.20;99.90
16038;DHT22;8123;50.906;6.172;2023-05-07T05:51:41;14.30;99.90
16038;DHT22;8123;50.906;6.172;2023-05-07T05:54:07;14.50;99.90
16038;DHT22;8123;50.906;6.172;2023-05-07T05:56:33;14.60;99.90
16038;DHT22;8123;50.906;6.172;2023-05-07T05:58:59;14.70;99.90
16038;DHT22;8123;50.906;6.172;2023-05-07T06:01:25;14.70;99.90
16038;DHT22;8123;50.906;6.172;2023-05-07T06:03:51;14.80;99.90
16038;DHT22;8123;50.906;6.172;2023-05-07T06:06:20;14.90;99.90
16038;DHT22;8123;50.906;6.172;2023-05-07T06:08:47;15.10;99.90
16038;DHT22;8123;50.906;6.172;2023-05-07T06:11:13;15.10;99.90
16038;DHT22;8123;50.906;6.172;2023-05-07T06:13:40;15.20;99.90
16038;DHT22;8123;50.906;6.172;2023-05-07T06:16:06;15.30;99.90
16038;DHT22;8123;50.906;6.172;2023-05-07T06:18:32;15.30;99.90
16038;DHT22;8123;50.906;6.172;2023-05-07T06:20:58;15.30;99.90
16038;DHT22;8123;50.906;6.172;2023-05-07T06:23:23;15.40;99.90
16038;DHT22;8123;50.906;6.172;2023-05-07T06:25:49;15.40;99.90
16038;DHT22;8123;50.906;6.172;2023-05-07T06:28:16;15.40;99.90
16038;DHT22;8123;50.906;6.172;2023-05-07T06:30:42;15.40;99.90
16038;DHT22;8123;50.906;6.172;2023-05-07T06:33:08;15.60;99.90
16038;DHT22;8123;50.906;6.172;2023-05-07T06:35:33;15.60;99.90
16038;DHT22;8123;50.906;6.172;2023-05-07T06:38:00;15.70;99.90
16038;DHT22;8123;50.906;6.172;2023-05-07T06:40:25;15.80;99.90
16038;DHT22;8123;50.906;6.172;2023-05-07T06:42:51;16.00;99.90
16038;DHT22;8123;50.906;6.172;2023-05-07T06:45:17;16.10;99.90
16038;DHT22;8123;50.906;6.172;2023-05-07T06:47:42;16.10;99.90
16038;DHT22;8123;50.906;6.172;2023-05-07T06:50:08;16.10;99.90
16038;DHT22;8123;50.906;6.172;2023-05-07T06:52:35;16.10;99.90
16038;DHT22;8123;50.906;6.172;2023-05-07T06:55:01;16.20;99.90
16038;DHT22;8123;50.906;6.172;2023-05-07T06:57:26;16.20;99.90
16038;DHT22;8123;50.906;6.172;2023-05-07T06:59:52;16.30;99.90
16038;DHT22;8123;50.906;6.172;2023-05-07T07:02:17;16.40;99.90
16038;DHT22;8123;50.906;6.172;2023-05-07T07:04:47;16.30;99.90
16038;DHT22;8123;50.906;6.172;2023-05-07T07:07:13;16.40;99.90
16038;DHT22;8123;50.906;6.172;2023-05-07T07:09:38;16.40;99.90
16038;DHT22;8123;50.906;6.172;2023-05-07T07:12:06;16.50;99.90
16038;DHT22;8123;50.906;6.172;2023-05-07T07:14:32;16.60;99.90
16038;DHT22;8123;50.906;6.172;2023-05-07T07:16:57;16.60;99.90
16038;DHT22;8123;50.906;6.172;2023-05-07T07:19:23;16.80;99.90
16038;DHT22;8123;50.906;6.172;2023-05-07T07:21:48;16.80;99.90
16038;DHT22;8123;50.906;6.172;2023-05-07T07:24:14;16.80;99.90
16038;DHT22;8123;50.906;6.172;2023-05-07T07:26:46;16.90;99.90
16038;DHT22;8123;50.906;6.172;2023-05-07T07:29:12;17.00;99.90
16038;DHT22;8123;50.906;6.172;2023-05-07T07:31:38;17.10;99.90
16038;DHT22;8123;50.906;6.172;2023-05-07T07:34:04;17.20;99.90
16038;DHT22;8123;50.906;6.172;2023-05-07T07:36:30;17.30;99.90
16038;DHT22;8123;50.906;6.172;2023-05-07T07:38:55;17.40;99.90
16038;DHT22;8123;50.906;6.172;2023-05-07T07:41:21;17.50;99.90
16038;DHT22;8123;50.906;6.172;2023-05-07T07:43:50;17.50;99.90
16038;DHT22;8123;50.906;6.172;2023-05-07T07:46:15;17.60;99.90
16038;DHT22;8123;50.906;6.172;2023-05-07T07:48:41;17.70;99.90
16038;DHT22;8123;50.906;6.172;2023-05-07T07:51:07;17.80;99.90
16038;DHT22;8123;50.906;6.172;2023-05-07T07:53:32;17.90;99.90
16038;DHT22;8123;50.906;6.172;2023-05-07T07:55:59;17.80;99.90
16038;DHT22;8123;50.906;6.172;2023-05-07T07:58:25;17.90;99.90
16038;DHT22;8123;50.906;6.172;2023-05-07T08:00:51;17.90;99.90
16038;DHT22;8123;50.906;6.172;2023-05-07T08:03:17;17.80;99.90
16038;DHT22;8123;50.906;6.172;2023-05-07T08:05:43;17.90;99.90
16038;DHT22;8123;50.906;6.172;2023-05-07T08:08:09;17.90;99.90
16038;DHT22;8123;50.906;6.172;2023-05-07T08:10:34;17.80;99.90
16038;DHT22;8123;50.906;6.172;2023-05-07T08:13:03;17.80;99.90
16038;DHT22;8123;50.906;6.172;2023-05-07T08:15:29;17.90;99.90
16038;DHT22;8123;50.906;6.172;2023-05-07T08:17:55;17.90;99.90
16038;DHT22;8123;50.906;6.172;2023-05-07T08:20:23;18.10;99.90
16038;DHT22;8123;50.906;6.172;2023-05-07T08:22:48;18.20;99.90
16038;DHT22;8123;50.906;6.172;2023-05-07T08:25:14;18.20;99.90
16038;DHT22;8123;50.906;6.172;2023-05-07T08:27:39;18.30;99.90
16038;DHT22;8123;50.906;6.172;2023-05-07T08:30:06;18.40;99.90
16038;DHT22;8123;50.906;6.172;2023-05-07T08:32:32;18.60;99.90
16038;DHT22;8123;50.906;6.172;2023-05-07T08:34:57;18.60;99.90
16038;DHT22;8123;50.906;6.172;2023-05-07T08:37:23;18.60;99.90
16038;DHT22;8123;50.906;6.172;2023-05-07T08:39:50;18.70;99.90
16038;DHT22;8123;50.906;6.172;2023-05-07T08:42:16;18.70;99.90
16038;DHT22;8123;50.906;6.172;2023-05-07T08:44:45;18.70;99.90
16038;DHT22;8123;50.906;6.172;2023-05-07T08:47:14;18.70;99.90
16038;DHT22;8123;50.906;6.172;2023-05-07T08:49:39;18.70;99.90
16038;DHT22;8123;50.906;6.172;2023-05-07T08:52:06;18.80;99.90
16038;DHT22;8123;50.906;6.172;2023-05-07T08:54:31;18.80;99.90
16038;DHT22;8123;50.906;6.172;2023-05-07T08:56:57;18.80;99.90
16038;DHT22;8123;50.906;6.172;2023-05-07T08:59:23;18.80;99.90
16038;DHT22;8123;50.906;6.172;2023-05-07T09:01:49;18.90;99.90
16038;DHT22;8123;50.906;6.172;2023-05-07T09:04:14;18.80;99.90
16038;DHT22;8123;50.906;6.172;2023-05-07T09:06:40;19.00;99.90
16038;DHT22;8123;50.906;6.172;2023-05-07T09:09:07;19.00;99.90
16038;DHT22;8123;50.906;6.172;2023-05-07T09:11:33;19.10;99.90
16038;DHT22;8123;50.906;6.172;2023-05-07T09:13:59;19.20;99.90
16038;DHT22;8123;50.906;6.172;2023-05-07T09:16:28;19.40;99.90
16038;DHT22;8123;50.906;6.172;2023-05-07T09:18:57;19.60;99.90
16038;DHT22;8123;50.906;6.172;2023-05-07T09:21:22;19.70;99.90
16038;DHT22;8123;50.906;6.172;2023-05-07T09:23:50;19.80;99.90
16038;DHT22;8123;50.906;6.172;2023-05-07T09:26:16;19.80;99.90
16038;DHT22;8123;50.906;6.172;2023-05-07T09:28:42;19.90;99.90
16038;DHT22;8123;50.906;6.172;2023-05-07T09:31:09;20.10;99.90
16038;DHT22;8123;50.906;6.172;2023-05-07T09:33:35;20.30;99.90
16038;DHT22;8123;50.906;6.172;2023-05-07T09:36:05;20.30;99.90
16038;DHT22;8123;50.906;6.172;2023-05-07T09:38:35;20.40;1.00
16038;DHT22;8123;50.906;6.172;2023-05-07T09:41:06;20.60;1.00
16038;DHT22;8123;50.906;6.172;2023-05-07T09:43:34;20.70;1.00
16038;DHT22;8123;50.906;6.172;2023-05-07T09:46:13;20.80;1.00
16038;DHT22;8123;50.906;6.172;2023-05-07T09:48:40;20.90;1.00
16038;DHT22;8123;50.906;6.172;2023-05-07T09:51:39;21.00;1.00
16038;DHT22;8123;50.906;6.172;2023-05-07T09:54:07;21.10;99.90
16038;DHT22;8123;50.906;6.172;2023-05-07T09:56:33;21.10;99.90
16038;DHT22;8123;50.906;6.172;2023-05-07T09:59:00;21.30;1.00
16038;DHT22;8123;50.906;6.172;2023-05-07T10:01:27;21.30;45.10
16038;DHT22;8123;50.906;6.172;2023-05-07T10:03:53;21.30;99.90
16038;DHT22;8123;50.906;6.172;2023-05-07T10:06:20;21.30;99.90
16038;DHT22;8123;50.906;6.172;2023-05-07T10:08:46;21.20;99.90
16038;DHT22;8123;50.906;6.172;2023-05-07T10:11:14;21.20;99.90
16038;DHT22;8123;50.906;6.172;2023-05-07T10:13:41;21.10;1.00
16038;DHT22;8123;50.906;6.172;2023-05-07T10:16:08;21.10;1.00
16038;DHT22;8123;50.906;6.172;2023-05-07T10:18:33;21.00;1.00
16038;DHT22;8123;50.906;6.172;2023-05-07T10:21:16;21.00;99.90
16038;DHT22;8123;50.906;6.172;2023-05-07T10:23:45;20.90;1.00
16038;DHT22;8123;50.906;6.172;2023-05-07T10:26:12;20.90;1.00
16038;DHT22;8123;50.906;6.172;2023-05-07T10:28:43;21.00;1.00
16038;DHT22;8123;50.906;6.172;2023-05-07T10:33:54;20.90;99.90
16038;DHT22;8123;50.906;6.172;2023-05-07T10:36:22;20.80;99.90
16038;DHT22;8123;50.906;6.172;2023-05-07T10:38:49;20.70;1.00
16038;DHT22;8123;50.906;6.172;2023-05-07T10:41:15;20.90;1.00
16038;DHT22;8123;50.906;6.172;2023-05-07T10:43:44;20.90;99.90
16038;DHT22;8123;50.906;6.172;2023-05-07T10:46:17;20.90;99.90
16038;DHT22;8123;50.906;6.172;2023-05-07T10:51:29;21.00;1.00
16038;DHT22;8123;50.906;6.172;2023-05-07T10:56:41;21.00;1.00
16038;DHT22;8123;50.906;6.172;2023-05-07T11:01:54;21.10;1.00
16038;DHT22;8123;50.906;6.172;2023-05-07T11:04:20;21.10;99.90
16038;DHT22;8123;50.906;6.172;2023-05-07T11:09:55;21.50;99.90
16038;DHT22;8123;50.906;6.172;2023-05-07T11:15:32;21.60;99.90
16038;DHT22;8123;50.906;6.172;2023-05-07T11:17:59;21.70;99.90
16038;DHT22;8123;50.906;6.172;2023-05-07T11:20:51;21.70;1.00
16038;DHT22;8123;50.906;6.172;2023-05-07T11:26:04;21.60;1.00
16038;DHT22;8123;50.906;6.172;2023-05-07T11:28:33;21.50;99.90
16038;DHT22;8123;50.906;6.172;2023-05-07T11:31:02;21.50;99.90
16038;DHT22;8123;50.906;6.172;2023-05-07T11:33:29;21.60;1.00
16038;DHT22;8123;50.906;6.172;2023-05-07T11:35:55;21.60;1.00
16038;DHT22;8123;50.906;6.172;2023-05-07T11:38:22;21.70;99.90
16038;DHT22;8123;50.906;6.172;2023-05-07T11:40:52;21.60;99.90
16038;DHT22;8123;50.906;6.172;2023-05-07T11:43:18;21.50;1.00
16038;DHT22;8123;50.906;6.172;2023-05-07T11:45:48;21.40;99.90
16038;DHT22;8123;50.906;6.172;2023-05-07T11:48:15;21.50;1.00
16038;DHT22;8123;50.906;6.172;2023-05-07T11:51:13;21.50;1.00
16038;DHT22;8123;50.906;6.172;2023-05-07T11:53:44;21.30;1.00
16038;DHT22;8123;50.906;6.172;2023-05-07T11:56:12;21.20;1.00
16038;DHT22;8123;50.906;6.172;2023-05-07T11:58:40;21.00;1.00
16038;DHT22;8123;50.906;6.172;2023-05-07T12:01:08;20.90;31.00
16038;DHT22;8123;50.906;6.172;2023-05-07T12:03:35;20.80;98.00
16038;DHT22;8123;50.906;6.172;2023-05-07T12:06:02;20.90;1.00
16038;DHT22;8123;50.906;6.172;2023-05-07T12:08:30;20.90;99.90
16038;DHT22;8123;50.906;6.172;2023-05-07T12:10:56;20.80;99.90
16038;DHT22;8123;50.906;6.172;2023-05-07T12:13:23;20.70;1.00
16038;DHT22;8123;50.906;6.172;2023-05-07T12:15:52;20.70;1.00
16038;DHT22;8123;50.906;6.172;2023-05-07T12:18:19;20.70;99.90
16038;DHT22;8123;50.906;6.172;2023-05-07T12:20:45;20.70;99.90
16038;DHT22;8123;50.906;6.172;2023-05-07T12:23:11;20.60;1.00
16038;DHT22;8123;50.906;6.172;2023-05-07T12:25:39;20.50;1.00
16038;DHT22;8123;50.906;6.172;2023-05-07T12:28:06;20.40;1.00
16038;DHT22;8123;50.906;6.172;2023-05-07T12:30:37;20.20;99.90
16038;DHT22;8123;50.906;6.172;2023-05-07T12:33:03;19.90;99.90
16038;DHT22;8123;50.906;6.172;2023-05-07T12:35:37;19.60;99.90
16038;DHT22;8123;50.906;6.172;2023-05-07T12:38:08;19.40;99.90
16038;DHT22;8123;50.906;6.172;2023-05-07T12:40:41;19.00;99.90
16038;DHT22;8123;50.906;6.172;2023-05-07T12:43:14;18.80;99.90
16038;DHT22;8123;50.906;6.172;2023-05-07T12:45:41;18.60;99.90
16038;DHT22;8123;50.906;6.172;2023-05-07T12:48:09;18.20;99.90
16038;DHT22;8123;50.906;6.172;2023-05-07T12:50:35;18.00;99.90
16038;DHT22;8123;50.906;6.172;2023-05-07T12:53:03;17.80;99.90
16038;DHT22;8123;50.906;6.172;2023-05-07T12:55:31;17.60;99.90
16038;DHT22;8123;50.906;6.172;2023-05-07T12:58:00;17.40;99.90
16038;DHT22;8123;50.906;6.172;2023-05-07T13:00:38;17.20;99.90
16038;DHT22;8123;50.906;6.172;2023-05-07T13:03:04;17.00;99.90
16038;DHT22;8123;50.906;6.172;2023-05-07T13:05:30;16.80;99.90
16038;DHT22;8123;50.906;6.172;2023-05-07T13:07:56;16.80;99.90
16038;DHT22;8123;50.906;6.172;2023-05-07T13:10:23;16.80;99.90
16038;DHT22;8123;50.906;6.172;2023-05-07T13:12:49;16.90;99.90
16038;DHT22;8123;50.906;6.172;2023-05-07T13:15:15;17.00;99.90
16038;DHT22;8123;50.906;6.172;2023-05-07T13:17:41;17.00;99.90
16038;DHT22;8123;50.906;6.172;2023-05-07T13:20:08;17.00;99.90
16038;DHT22;8123;50.906;6.172;2023-05-07T13:22:34;16.90;99.90
16038;DHT22;8123;50.906;6.172;2023-05-07T13:25:00;17.10;99.90
16038;DHT22;8123;50.906;6.172;2023-05-07T13:27:25;17.20;99.90
16038;DHT22;8123;50.906;6.172;2023-05-07T13:29:51;17.30;99.90
16038;DHT22;8123;50.906;6.172;2023-05-07T13:32:18;17.50;99.90
16038;DHT22;8123;50.906;6.172;2023-05-07T13:34:44;17.50;99.90
16038;DHT22;8123;50.906;6.172;2023-05-07T13:37:09;17.50;99.90
16038;DHT22;8123;50.906;6.172;2023-05-07T13:39:37;17.60;99.90
16038;DHT22;8123;50.906;6.172;2023-05-07T13:42:02;17.60;99.90
16038;DHT22;8123;50.906;6.172;2023-05-07T13:44:28;17.70;99.90
16038;DHT22;8123;50.906;6.172;2023-05-07T13:46:54;17.60;99.90
16038;DHT22;8123;50.906;6.172;2023-05-07T13:49:19;17.70;99.90
16038;DHT22;8123;50.906;6.172;2023-05-07T13:51:45;17.90;99.90
16038;DHT22;8123;50.906;6.172;2023-05-07T13:54:10;17.90;99.90
16038;DHT22;8123;50.906;6.172;2023-05-07T13:56:37;17.90;99.90
16038;DHT22;8123;50.906;6.172;2023-05-07T13:59:02;17.90;99.90
16038;DHT22;8123;50.906;6.172;2023-05-07T14:01:28;17.90;99.90
16038;DHT22;8123;50.906;6.172;2023-05-07T14:03:54;18.00;99.90
16038;DHT22;8123;50.906;6.172;2023-05-07T14:06:20;18.00;99.90
16038;DHT22;8123;50.906;6.172;2023-05-07T14:08:47;18.00;99.90
16038;DHT22;8123;50.906;6.172;2023-05-07T14:11:12;17.70;99.90
16038;DHT22;8123;50.906;6.172;2023-05-07T14:13:38;18.30;99.90
16038;DHT22;8123;50.906;6.172;2023-05-07T14:16:04;18.20;99.90
16038;DHT22;8123;50.906;6.172;2023-05-07T14:18:30;18.30;99.90
16038;DHT22;8123;50.906;6.172;2023-05-07T14:20:56;18.10;99.90
16038;DHT22;8123;50.906;6.172;2023-05-07T14:23:21;18.10;99.90
16038;DHT22;8123;50.906;6.172;2023-05-07T14:25:54;18.00;99.90
16038;DHT22;8123;50.906;6.172;2023-05-07T14:28:21;18.00;99.90
16038;DHT22;8123;50.906;6.172;2023-05-07T14:30:48;17.90;99.90
16038;DHT22;8123;50.906;6.172;2023-05-07T14:33:13;17.90;99.90
16038;DHT22;8123;50.906;6.172;2023-05-07T14:35:39;18.00;99.90
16038;DHT22;8123;50.906;6.172;2023-05-07T14:38:05;18.00;99.90
16038;DHT22;8123;50.906;6.172;2023-05-07T14:40:30;18.00;99.90
16038;DHT22;8123;50.906;6.172;2023-05-07T14:42:56;18.00;99.90
16038;DHT22;8123;50.906;6.172;2023-05-07T14:45:23;18.00;99.90
16038;DHT22;8123;50.906;6.172;2023-05-07T14:47:48;18.10;99.90
16038;DHT22;8123;50.906;6.172;2023-05-07T14:50:14;18.10;99.90
16038;DHT22;8123;50.906;6.172;2023-05-07T14:52:40;18.20;99.90
16038;DHT22;8123;50.906;6.172;2023-05-07T14:55:05;18.10;99.90
16038;DHT22;8123;50.906;6.172;2023-05-07T14:57:31;18.20;99.90
16038;DHT22;8123;50.906;6.172;2023-05-07T15:00:03;18.10;99.90
16038;DHT22;8123;50.906;6.172;2023-05-07T15:02:30;18.20;99.90
16038;DHT22;8123;50.906;6.172;2023-05-07T15:04:55;18.20;99.90
16038;DHT22;8123;50.906;6.172;2023-05-07T15:07:21;18.30;99.90
16038;DHT22;8123;50.906;6.172;2023-05-07T15:09:47;18.30;99.90
16038;DHT22;8123;50.906;6.172;2023-05-07T15:12:13;18.20;99.90
16038;DHT22;8123;50.906;6.172;2023-05-07T15:14:39;18.30;99.90
16038;DHT22;8123;50.906;6.172;2023-05-07T15:17:04;18.40;99.90
16038;DHT22;8123;50.906;6.172;2023-05-07T15:19:30;18.50;99.90
16038;DHT22;8123;50.906;6.172;2023-05-07T15:21:59;18.40;99.90
16038;DHT22;8123;50.906;6.172;2023-05-07T15:24:31;18.40;99.90
16038;DHT22;8123;50.906;6.172;2023-05-07T15:26:57;18.50;99.90
16038;DHT22;8123;50.906;6.172;2023-05-07T15:29:23;18.50;99.90
16038;DHT22;8123;50.906;6.172;2023-05-07T15:31:50;18.50;99.90
16038;DHT22;8123;50.906;6.172;2023-05-07T15:34:15;18.50;99.90
16038;DHT22;8123;50.906;6.172;2023-05-07T15:36:41;18.50;99.90
16038;DHT22;8123;50.906;6.172;2023-05-07T15:39:07;18.40;99.90
16038;DHT22;8123;50.906;6.172;2023-05-07T15:41:33;18.40;99.90
16038;DHT22;8123;50.906;6.172;2023-05-07T15:43:58;18.40;99.90
16038;DHT22;8123;50.906;6.172;2023-05-07T15:46:25;18.40;99.90
16038;DHT22;8123;50.906;6.172;2023-05-07T15:48:52;18.40;99.90
16038;DHT22;8123;50.906;6.172;2023-05-07T15:51:18;18.30;99.90
16038;DHT22;8123;50.906;6.172;2023-05-07T15:53:45;18.30;99.90
16038;DHT22;8123;50.906;6.172;2023-05-07T15:56:11;18.30;99.90
16038;DHT22;8123;50.906;6.172;2023-05-07T15:58:36;18.30;99.90
16038;DHT22;8123;50.906;6.172;2023-05-07T16:01:03;18.20;99.90
16038;DHT22;8123;50.906;6.172;2023-05-07T16:03:29;18.20;99.90